Time;durP1;ratioP1;P1;durP2;ratioP2;P2;SDS_P1;SDS_P2;PMS_P1;PMS_P2;Temp;Humidity;BMP_temperature;BMP_pressure;BME280_temperature;BME280_humidity;BME280_pressure;Samples;Min_cycle;Max_cycle;Signal;HPM_P1;HPM_P2
2023/06/04 07:01:37;;;;;;;0.20;0.20;;;21.80;99.90;24.50;102084.00;;;;6252269;22;1336742;-70
2023/06/04 07:04:23;;;;;;;1.23;0.17;;;22.00;99.90;24.40;102125.00;;;;6256630;22;20156;-70
2023/06/04 07:07:16;;;;;;;0.40;0.40;;;21.70;99.90;24.50;102131.00;;;;6256676;22;20155;-70
2023/06/04 07:10:25;;;;;;;0.10;0.10;;;21.70;99.90;26.40;102117.00;;;;6256722;22;20172;-70
2023/06/04 07:13:23;;;;;;;0.10;0.10;;;21.90;99.90;26.80;102105.00;;;;6256298;22;20156;-70
2023/06/04 07:16:30;;;;;;;2.25;0.38;;;23.30;99.90;24.90;102113.00;;;;6309385;22;20227;-70
2023/06/04 07:19:35;;;;;;;5.35;0.93;;;23.10;99.90;26.00;102102.00;;;;6256306;22;20140;-69
2023/06/04 07:22:39;;;;;;;0.68;0.68;;;22.70;99.90;23.80;102064.00;;;;6282228;22;20172;-69
2023/06/04 07:25:30;;;;;;;0.35;0.32;;;22.00;99.90;22.90;102108.00;;;;6254520;22;20548;-71
2023/06/04 07:28:16;;;;;;;0.43;0.43;;;21.00;99.90;24.20;102107.00;;;;6308398;22;20592;-71
2023/06/04 07:31:02;;;;;;;0.57;0.55;;;21.80;99.90;23.50;102113.00;;;;6280543;22;20599;-71
2023/06/04 07:33:51;;;;;;;1.10;0.80;;;21.90;99.90;24.70;102092.00;;;;6253161;22;20651;-70
2023/06/04 07:36:17;;;;;;;0.10;0.10;;;22.20;99.90;26.60;102040.00;;;;6282394;22;20152;-69
2023/06/04 07:38:53;;;;;;;0.55;0.25;;;23.20;99.90;26.00;102086.00;;;;6281599;22;20167;-70
2023/06/04 07:41:26;;;;;;;2.40;0.80;;;23.20;99.90;25.80;102033.00;;;;6281493;22;20168;-71
2023/06/04 07:43:55;;;;;;;0.75;0.75;;;23.70;99.90;26.80;102066.00;;;;6282261;22;20198;-70
2023/06/04 07:46:24;;;;;;;0.22;0.22;;;23.60;99.90;26.70;102065.00;;;;6256110;22;20244;-70
2023/06/04 07:49:28;;;;;;;0.10;0.10;;;23.40;99.90;26.10;102068.00;;;;6281600;22;20148;-75
2023/06/04 07:52:22;;;;;;;0.63;0.63;;;24.10;99.90;24.80;102072.00;;;;6256293;22;20166;-72
2023/06/04 07:54:48;;;;;;;0.38;0.38;;;23.30;99.90;25.50;102066.00;;;;6281420;22;20141;-72
2023/06/04 07:57:59;;;;;;;0.32;0.32;;;23.10;99.90;26.30;102070.00;;;;6280895;22;20198;-72
2023/06/04 08:01:05;;;;;;;3.70;3.22;;;23.20;99.90;24.40;102082.00;;;;6281786;22;20168;-72
2023/06/04 08:04:03;;;;;;;0.10;0.10;;;23.40;99.90;28.60;102058.00;;;;6307298;22;20220;-70
2023/06/04 08:06:35;;;;;;;0.10;0.10;;;24.30;99.90;29.60;102064.00;;;;6247273;22;20239;-73
2023/06/04 08:09:21;;;;;;;0.52;0.50;;;25.90;99.90;27.60;102084.00;;;;6281718;22;20164;-68
2023/06/04 08:12:28;;;;;;;0.10;0.10;;;25.70;99.30;26.20;102088.00;;;;6281707;22;20470;-74
2023/06/04 08:15:17;;;;;;;0.20;0.20;;;24.10;99.90;28.40;102071.00;;;;6252377;22;20174;-71
2023/06/04 08:18:14;;;;;;;1.45;0.30;;;24.80;99.90;26.90;102095.00;;;;6294503;22;20156;-72
2023/06/04 08:21:03;;;;;;;0.10;0.10;;;24.10;99.90;28.20;102079.00;;;;6280489;22;20230;-73
2023/06/04 08:24:09;;;;;;;0.10;0.10;;;24.90;99.70;27.60;102081.00;;;;6266267;22;20218;-75
2023/06/04 08:26:45;;;;;;;0.30;0.30;;;24.90;97.70;27.70;102078.00;;;;6277770;22;20190;-75
2023/06/04 08:29:59;;;;;;;0.10;0.10;;;24.90;97.50;28.90;102078.00;;;;6281519;22;20163;-72
2023/06/04 08:33:05;;;;;;;0.47;0.47;;;24.90;98.60;26.60;102092.00;;;;6279886;22;20159;-72
2023/06/04 08:36:20;;;;;;;0.28;0.15;;;24.80;96.10;27.10;102052.00;;;;6255082;22;20182;-76
2023/06/04 08:39:33;;;;;;;0.98;0.95;;;24.30;96.20;26.80;102089.00;;;;6281505;22;20235;-74
2023/06/04 08:42:33;;;;;;;0.10;0.10;;;24.40;97.00;28.40;102056.00;;;;6281192;22;20225;-74
2023/06/04 08:45:19;;;;;;;1.10;0.70;;;24.20;97.70;26.10;102082.00;;;;6278525;22;20606;-75
2023/06/04 08:48:20;;;;;;;0.30;0.30;;;24.10;97.90;27.70;102100.00;;;;6251268;22;20171;-73
2023/06/04 08:50:58;;;;;;;0.65;0.65;;;24.60;97.40;27.90;102087.00;;;;6252051;22;20247;-74
2023/06/04 08:53:58;;;;;;;0.60;0.52;;;24.70;96.80;27.20;102102.00;;;;6254525;22;20160;-74
2023/06/04 08:57:03;;;;;;;0.38;0.38;;;24.40;96.40;26.50;102106.00;;;;6247631;22;20187;-74
2023/06/04 09:00:04;;;;;;;0.17;0.17;;;23.80;97.60;26.70;102100.00;;;;6274720;22;20232;-74
2023/06/04 09:03:03;;;;;;;0.65;0.65;;;23.80;97.40;26.20;102104.00;;;;6274166;22;20222;-74
2023/06/04 09:05:47;;;;;;;0.10;0.10;;;23.50;96.70;27.00;102104.00;;;;6279847;22;20144;-74
2023/06/04 09:09:03;;;;;;;0.10;0.10;;;24.10;96.40;27.60;102103.00;;;;6280418;22;20610;-74
2023/06/04 09:12:00;;;;;;;0.28;0.28;;;25.00;95.40;27.00;102122.00;;;;6280772;22;20145;-72
2023/06/04 09:14:51;;;;;;;0.20;0.20;;;24.60;95.10;28.30;102095.00;;;;6278796;22;20140;-71
2023/06/04 09:18:06;;;;;;;0.30;0.28;;;24.50;95.90;26.50;102122.00;;;;6256895;22;20470;-72
2023/06/04 09:21:06;;;;;;;0.38;0.38;;;23.90;95.10;26.60;102116.00;;;;6184467;23;20253;-72
2023/06/04 09:23:54;;;;;;;0.80;0.40;;;24.00;94.90;26.70;102106.00;;;;6211280;23;20186;-73
2023/06/04 09:27:08;;;;;;;0.30;0.30;;;24.40;93.50;29.20;102085.00;;;;6186669;23;20201;-72
2023/06/04 09:30:00;;;;;;;0.55;0.30;;;25.40;93.00;27.40;102097.00;;;;6169449;23;20170;-72
2023/06/04 09:32:47;;;;;;;0.17;0.17;;;25.20;92.20;28.30;102084.00;;;;6279721;22;20164;-72
2023/06/04 09:36:18;;;;;;;0.20;0.20;;;25.70;93.00;27.80;102100.00;;;;6279787;22;20193;-72
2023/06/04 09:39:17;;;;;;;0.28;0.28;;;24.90;93.10;28.20;102098.00;;;;6254747;22;20607;-72
2023/06/04 09:42:06;;;;;;;0.10;0.10;;;25.30;92.60;30.20;102041.00;;;;6258730;22;20227;-74
2023/06/04 09:44:48;;;;;;;0.68;0.47;;;26.40;91.20;26.50;102065.00;;;;6257092;22;20144;-72
2023/06/04 09:47:19;;;;;;;0.10;0.10;;;25.10;90.30;28.60;102092.00;;;;6279865;22;20207;-71
2023/06/04 09:50:28;;;;;;;0.30;0.30;;;24.70;91.70;27.60;102107.00;;;;6252893;22;20625;-73
2023/06/04 09:56:47;;;;;;;0.60;0.60;;;25.50;90.70;26.80;102090.00;;;;6279126;22;20691;-72
2023/06/04 09:59:52;;;;;;;0.30;0.30;;;24.50;90.90;27.60;102087.00;;;;6279424;22;20160;-72
2023/06/04 10:02:59;;;;;;;0.30;0.28;;;24.20;91.10;27.20;102089.00;;;;6278393;22;20646;-72
2023/06/04 10:05:56;;;;;;;0.13;0.13;;;25.00;89.80;27.50;102097.00;;;;6278987;22;20202;-71
2023/06/04 10:09:06;;;;;;;0.30;0.30;;;25.20;89.60;27.40;102092.00;;;;6258544;22;20510;-72
2023/06/04 10:11:58;;;;;;;1.17;0.63;;;25.00;89.40;27.80;102080.00;;;;6286634;22;20160;-72
2023/06/04 10:14:56;;;;;;;0.43;0.43;;;25.50;89.40;28.90;102081.00;;;;6278146;22;20150;-72
2023/06/04 10:18:23;;;;;;;0.70;0.47;;;25.80;88.80;28.90;102089.00;;;;6252839;22;20152;-73
2023/06/04 10:33:41;;;;;;;0.22;0.22;;;24.00;87.80;28.90;102088.00;;;;5069859;28;20536;-71
2023/06/04 10:36:22;;;;;;;0.80;0.73;;;24.60;89.00;26.80;102089.00;;;;5063653;28;20186;-68
2023/06/04 10:38:52;;;;;;;0.20;0.20;;;25.40;86.10;29.00;102087.00;;;;5049114;28;20181;-68
2023/06/04 10:41:23;;;;;;;0.40;0.40;;;25.60;85.70;28.60;102078.00;;;;5048975;28;20597;-68
2023/06/04 10:44:01;;;;;;;;;;;;;;;;;;;;;
2023/06/04 10:46:43;;;;;;;0.20;0.20;;;25.40;86.40;29.30;102072.00;;;;5041491;28;20186;-68
2023/06/04 10:49:12;;;;;;;0.45;0.45;;;25.90;87.30;31.20;102062.00;;;;5045671;28;20181;-68
2023/06/04 10:51:46;;;;;;;0.10;0.10;;;27.00;85.10;30.20;102034.00;;;;5049787;28;20558;-68
2023/06/04 10:54:29;;;;;;;0.20;0.20;;;27.30;83.60;31.50;102061.00;;;;5049041;28;20645;-68
2023/06/04 10:57:18;;;;;;;0.30;0.30;;;27.40;84.30;29.70;102040.00;;;;5081561;28;20178;-67
2023/06/04 11:00:09;;;;;;;0.73;0.52;;;26.60;83.60;27.50;102083.00;;;;5048401;28;20261;-67
2023/06/04 11:02:55;;;;;;;0.10;0.10;;;26.00;83.50;30.10;102071.00;;;;5048235;28;20186;-68
2023/06/04 11:05:56;;;;;;;0.55;0.55;;;26.10;84.00;28.00;102077.00;;;;5050129;28;20182;-68
2023/06/04 11:08:33;;;;;;;0.10;0.10;;;25.80;82.90;29.00;102066.00;;;;5024284;28;20197;-67
2023/06/04 11:11:21;;;;;;;0.43;0.43;;;25.90;83.30;31.80;102050.00;;;;5048100;28;20649;-68
2023/06/04 11:14:17;;;;;;;0.38;0.25;;;27.10;83.80;30.00;102031.00;;;;5049509;28;20190;-68
2023/06/04 11:16:43;;;;;;;0.20;0.20;;;27.90;81.60;30.00;102062.00;;;;5047868;28;20182;-68
2023/06/04 11:19:39;;;;;;;0.10;0.10;;;26.60;82.00;30.20;102062.00;;;;5032410;28;20186;-68
2023/06/04 11:22:05;;;;;;;0.10;0.10;;;26.90;78.80;28.80;102057.00;;;;5078033;28;20252;-68
2023/06/04 11:24:48;;;;;;;0.10;0.10;;;26.60;79.00;28.70;102072.00;;;;5031399;28;20186;-67
2023/06/04 11:27:40;;;;;;;0.10;0.10;;;26.50;78.90;31.20;102047.00;;;;5048038;28;20560;-68
2023/06/04 11:30:36;;;;;;;1.25;0.63;;;27.30;78.80;27.70;102063.00;;;;5029755;28;20202;-69
2023/06/04 11:33:44;;;;;;;0.30;0.30;;;26.10;77.90;31.00;102049.00;;;;5025382;28;20264;-68
2023/06/04 11:36:38;;;;;;;1.55;0.32;;;27.00;78.10;28.00;102063.00;;;;5047981;28;20178;-68
2023/06/04 11:39:34;;;;;;;0.45;0.45;;;26.40;77.30;29.80;102045.00;;;;5040629;28;20534;-68
2023/06/04 11:42:13;;;;;;;0.20;0.20;;;26.10;79.70;29.10;102052.00;;;;5048139;28;20181;-68
2023/06/04 11:45:06;;;;;;;0.60;0.32;;;26.50;78.80;27.80;102069.00;;;;5017511;28;20194;-68
2023/06/04 11:47:58;;;;;;;0.20;0.20;;;25.80;78.80;30.70;102051.00;;;;5031882;28;20198;-67
2023/06/04 11:50:40;;;;;;;0.77;0.52;;;26.40;76.60;27.60;102067.00;;;;5031836;28;20191;-68
2023/06/04 11:53:06;;;;;;;0.75;0.75;;;26.00;76.50;27.10;102059.00;;;;5022363;28;20930;-67
2023/06/04 11:55:41;;;;;;;1.38;0.90;;;24.70;78.10;27.30;102030.00;;;;5017548;28;20609;-67
2023/06/04 11:58:17;;;;;;;0.32;0.32;;;24.90;77.70;28.80;102058.00;;;;5013898;28;20194;-68
2023/06/04 12:01:09;;;;;;;0.30;0.30;;;25.20;80.10;29.60;102028.00;;;;5064199;28;20192;-69
2023/06/04 12:03:38;;;;;;;2.63;0.35;;;25.80;79.20;28.40;102059.00;;;;5027406;28;20669;-69
2023/06/04 12:06:37;;;;;;;0.40;0.40;;;25.60;78.00;29.20;102038.00;;;;5033782;28;20228;-69
2023/06/04 12:09:46;;;;;;;0.10;0.10;;;25.30;79.80;27.60;102058.00;;;;5027375;28;20175;-69
2023/06/04 12:12:47;;;;;;;0.20;0.20;;;25.00;78.70;27.70;102050.00;;;;5028686;28;20680;-69
2023/06/04 12:15:59;;;;;;;0.40;0.40;;;24.70;80.30;29.00;102043.00;;;;5030997;28;20199;-69
2023/06/04 12:18:45;;;;;;;0.20;0.20;;;24.60;81.80;29.50;101998.00;;;;5035295;28;20186;-69
2023/06/04 12:21:58;;;;;;;0.20;0.20;;;25.30;80.00;27.80;102059.00;;;;5033969;28;20195;-70
2023/06/04 12:24:37;;;;;;;0.10;0.10;;;25.20;78.80;29.60;101999.00;;;;4975759;28;20192;-72
2023/06/04 12:27:18;;;;;;;0.10;0.10;;;25.60;78.90;28.80;102044.00;;;;5009210;28;20195;-72
2023/06/04 12:30:34;;;;;;;0.30;0.30;;;25.40;77.50;28.30;102034.00;;;;5033398;28;20270;-71
2023/06/04 12:33:03;;;;;;;0.20;0.20;;;25.10;78.30;29.10;102037.00;;;;4994637;28;20228;-71
2023/06/04 12:36:05;;;;;;;0.10;0.10;;;25.30;80.00;29.20;102037.00;;;;5033418;28;20197;-70
2023/06/04 12:39:20;;;;;;;0.25;0.25;;;25.50;80.30;27.00;102043.00;;;;5033600;28;20194;-70
2023/06/04 12:42:15;;;;;;;0.20;0.20;;;24.90;79.10;27.90;102050.00;;;;5005795;28;20198;-71
2023/06/04 12:45:54;;;;;;;0.10;0.10;;;24.40;80.90;28.70;102029.00;;;;4994936;28;20199;-71
2023/06/04 12:48:41;;;;;;;0.55;0.55;;;24.50;79.50;28.70;102033.00;;;;4989833;28;20192;-71
2023/06/04 12:51:12;;;;;;;0.45;0.45;;;24.90;80.50;29.00;102024.00;;;;4992529;28;20192;-71
2023/06/04 12:54:05;;;;;;;0.45;0.45;;;25.00;79.20;28.30;102049.00;;;;4993846;28;20284;-71
2023/06/04 12:56:51;;;;;;;0.28;0.28;;;24.90;81.40;28.70;102047.00;;;;4972524;28;20268;-71
2023/06/04 12:59:30;;;;;;;0.30;0.30;;;25.20;80.80;28.50;102026.00;;;;4972859;28;20197;-71
2023/06/04 13:02:17;;;;;;;0.30;0.30;;;25.30;80.90;27.70;102054.00;;;;4940989;28;20211;-72
2023/06/04 13:04:58;;;;;;;2.88;0.65;;;24.70;80.90;27.60;102027.00;;;;4957621;28;20204;-72
2023/06/04 13:11:09;;;;;;;0.10;0.10;;;24.80;81.90;28.60;102038.00;;;;5017801;28;20202;-72
2023/06/04 13:13:39;;;;;;;0.35;0.22;;;24.90;81.50;27.70;102005.00;;;;5032764;28;20637;-72
2023/06/04 13:16:35;;;;;;;0.10;0.10;;;24.90;81.60;29.10;102034.00;;;;5014255;28;20179;-72
2023/06/04 13:19:31;;;;;;;0.40;0.40;;;25.10;81.50;28.00;102012.00;;;;5028405;28;20240;-72
2023/06/04 13:22:25;;;;;;;0.43;0.30;;;25.00;82.10;28.60;102036.00;;;;5032084;28;20175;-71
2023/06/04 13:24:58;;;;;;;0.35;0.35;;;24.90;81.50;29.30;102023.00;;;;5008549;28;20200;-73
2023/06/04 13:27:47;;;;;;;0.10;0.10;;;25.30;82.20;28.30;101996.00;;;;5032180;28;20194;-74
2023/06/04 13:30:22;;;;;;;0.47;0.47;;;25.10;82.60;28.40;102034.00;;;;5016611;28;20229;-71
2023/06/04 13:32:52;;;;;;;2.55;2.45;;;25.10;82.30;27.60;102046.00;;;;5033927;28;20206;-71
2023/06/04 13:35:37;;;;;;;0.73;0.73;;;24.90;81.70;28.10;102040.00;;;;5032919;28;20190;-72
2023/06/04 13:38:30;;;;;;;1.02;1.00;;;24.80;82.30;27.70;102045.00;;;;5032190;28;20258;-72
2023/06/04 13:40:56;;;;;;;0.20;0.20;;;24.70;82.70;29.10;102011.00;;;;5022505;28;20245;-72
2023/06/04 13:43:44;;;;;;;0.10;0.10;;;25.00;84.00;29.40;102024.00;;;;5032534;28;20186;-72
2023/06/04 13:46:13;;;;;;;1.27;0.75;;;25.20;82.60;29.40;101988.00;;;;5033516;28;20206;-72
2023/06/04 13:48:48;;;;;;;0.63;0.30;;;25.50;83.00;27.90;102027.00;;;;5032303;28;20181;-71
2023/06/04 13:51:43;;;;;;;0.35;0.35;;;25.30;81.80;28.90;102019.00;;;;5039274;28;20187;-71
2023/06/04 13:54:15;;;;;;;0.35;0.35;;;25.10;83.90;27.40;102022.00;;;;5023714;28;20221;-71
2023/06/04 13:57:15;;;;;;;0.40;0.40;;;24.70;83.20;28.60;102033.00;;;;5032190;28;20187;-70
2023/06/04 13:59:54;;;;;;;0.30;0.30;;;24.90;84.20;28.60;102027.00;;;;5015839;28;20187;-70
2023/06/04 14:02:23;;;;;;;0.10;0.10;;;25.20;84.20;28.90;101984.00;;;;5032143;28;20202;-71
2023/06/04 14:05:21;;;;;;;0.20;0.20;;;24.90;83.50;29.10;101981.00;;;;5032023;28;20187;-71
2023/06/04 14:07:56;;;;;;;0.30;0.20;;;25.00;84.80;28.50;102029.00;;;;5007614;28;20195;-71
2023/06/04 14:10:31;;;;;;;0.75;0.75;;;25.00;82.80;28.30;102018.00;;;;5028933;28;20187;-68
2023/06/04 14:15:51;;;;;;;0.38;0.38;;;24.90;82.30;26.60;102026.00;;;;5016799;28;20274;-68
2023/06/04 14:18:20;;;;;;;0.10;0.10;;;24.30;82.50;28.30;101998.00;;;;5030682;28;20685;-68
2023/06/04 14:21:36;;;;;;;0.55;0.52;;;24.40;84.00;29.10;102003.00;;;;5027799;28;20202;-68
2023/06/04 14:24:08;;;;;;;0.63;0.63;;;24.80;83.90;26.80;101969.00;;;;5031501;28;20199;-69
2023/06/04 14:26:46;;;;;;;0.20;0.20;;;24.40;83.80;27.40;102013.00;;;;5029046;28;20234;-68
2023/06/04 14:29:31;;;;;;;0.57;0.50;;;24.40;83.50;27.90;102009.00;;;;5048700;28;20637;-69
2023/06/04 14:31:59;;;;;;;0.52;0.52;;;24.60;83.60;29.30;101996.00;;;;5014977;28;20202;-68
2023/06/04 14:34:37;;;;;;;0.50;0.50;;;24.80;85.10;27.60;101995.00;;;;5031325;28;20182;-69
2023/06/04 14:37:56;;;;;;;0.43;0.38;;;24.90;84.10;27.00;102025.00;;;;5031853;28;20182;-69
2023/06/04 14:41:00;;;;;;;0.10;0.10;;;24.60;83.90;28.10;102008.00;;;;4991267;28;20651;-68
2023/06/04 14:43:50;;;;;;;0.68;0.57;;;24.50;84.20;28.50;101998.00;;;;4971612;28;20193;-69
2023/06/04 14:46:40;;;;;;;1.02;0.52;;;24.70;84.20;28.10;101973.00;;;;4942569;29;20205;-68
2023/06/04 14:49:29;;;;;;;0.57;0.50;;;25.00;83.60;27.80;102005.00;;;;4894797;29;20195;-68
2023/06/04 14:52:16;;;;;;;0.70;0.43;;;24.70;83.30;29.20;101962.00;;;;4917169;29;20245;-68
2023/06/04 14:54:56;;;;;;;0.20;0.20;;;25.10;83.60;29.50;101947.00;;;;4934261;29;20292;-68
2023/06/04 14:57:35;;;;;;;0.20;0.20;;;25.20;82.80;29.10;101996.00;;;;4926005;29;20264;-68
2023/06/04 15:00:10;;;;;;;1.35;1.35;;;25.30;84.30;28.50;101992.00;;;;4929103;29;20278;-68
2023/06/04 15:03:09;;;;;;;0.47;0.40;;;25.10;83.20;28.10;101953.00;;;;4933057;29;20237;-67
2023/06/04 15:05:47;;;;;;;0.55;0.55;;;24.90;83.20;28.80;101993.00;;;;4936351;29;20217;-68
2023/06/04 15:08:30;;;;;;;0.17;0.17;;;24.90;84.30;28.70;101955.00;;;;4936432;29;20190;-68
2023/06/04 15:11:31;;;;;;;0.20;0.20;;;25.20;83.50;28.10;101951.00;;;;4931864;29;20201;-68
2023/06/04 15:14:58;;;;;;;3.33;1.10;;;25.00;83.80;26.90;101998.00;;;;4908839;29;20213;-68
2023/06/04 15:21:25;;;;;;;0.35;0.35;;;24.50;84.40;27.30;101987.00;;;;4889880;29;20194;-68
2023/06/04 15:24:02;;;;;;;0.55;0.38;;;24.50;83.80;27.50;101993.00;;;;4876042;29;20214;-68
2023/06/04 15:26:52;;;;;;;0.45;0.40;;;24.40;84.20;27.50;101992.00;;;;4900862;29;20294;-68
2023/06/04 15:29:44;;;;;;;2.65;0.52;;;24.50;84.20;27.70;101987.00;;;;4936344;28;20701;-68
2023/06/04 15:32:45;;;;;;;1.48;0.75;;;24.60;84.20;27.50;101991.00;;;;4936215;29;20317;-68
2023/06/04 15:35:34;;;;;;;0.45;0.45;;;24.70;84.10;27.70;101978.00;;;;4946990;28;20270;-68
2023/06/04 15:41:59;;;;;;;0.77;0.77;;;24.40;83.90;28.80;101982.00;;;;4959924;28;20201;-68
2023/06/04 15:45:03;;;;;;;0.82;0.82;;;24.80;84.40;27.20;101996.00;;;;4951542;28;20200;-68
2023/06/04 15:47:47;;;;;;;1.00;0.30;;;24.70;83.80;27.80;101974.00;;;;5023697;28;20214;-67
2023/06/04 15:51:05;;;;;;;0.50;0.50;;;24.70;83.60;28.30;101981.00;;;;5011662;28;20195;-68
2023/06/04 15:53:46;;;;;;;0.47;0.47;;;24.70;84.30;28.40;101988.00;;;;4972416;28;20197;-66
2023/06/04 15:56:18;;;;;;;0.25;0.25;;;24.90;83.80;27.90;101976.00;;;;4956500;28;20227;-65
2023/06/04 15:59:36;;;;;;;0.10;0.10;;;24.70;83.60;27.70;101984.00;;;;5027893;28;20240;-67
2023/06/04 16:02:05;;;;;;;0.10;0.10;;;24.50;83.30;28.30;101966.00;;;;5014283;28;20207;-65
2023/06/04 16:04:40;;;;;;;0.30;0.30;;;24.60;83.40;29.00;101960.00;;;;5035017;28;20222;-65
2023/06/04 16:07:28;;;;;;;0.13;0.13;;;24.90;84.10;27.40;101979.00;;;;5050320;28;20189;-66
2023/06/04 16:10:41;;;;;;;0.22;0.22;;;24.70;84.30;27.80;101975.00;;;;5026822;28;20279;-63
2023/06/04 16:13:19;;;;;;;0.45;0.38;;;24.40;83.50;27.60;101971.00;;;;5033343;28;20194;-67
2023/06/04 16:15:52;;;;;;;0.22;0.22;;;24.40;83.90;28.50;101970.00;;;;5026845;28;20209;-65
2023/06/04 16:18:25;;;;;;;0.20;0.20;;;24.60;83.90;27.70;101964.00;;;;5049955;28;20191;-65
2023/06/04 16:21:04;;;;;;;0.30;0.30;;;24.40;84.60;28.00;101956.00;;;;5026724;28;20467;-65
2023/06/04 16:23:43;;;;;;;0.40;0.35;;;24.50;83.90;27.40;101965.00;;;;5033869;28;20186;-65
2023/06/04 16:26:15;;;;;;;0.25;0.25;;;24.30;84.50;27.70;101953.00;;;;5017061;28;20203;-65
2023/06/04 16:29:10;;;;;;;0.10;0.10;;;24.20;84.30;28.30;101934.00;;;;5030021;28;20265;-65
2023/06/04 16:31:46;;;;;;;0.60;0.60;;;24.50;85.20;27.50;101949.00;;;;5010229;28;20309;-65
2023/06/04 16:34:20;;;;;;;0.20;0.20;;;24.50;85.20;27.30;101962.00;;;;5033114;28;20210;-65
2023/06/04 16:36:52;;;;;;;1.13;0.80;;;24.30;84.90;27.80;101960.00;;;;5016975;28;20187;-65
2023/06/04 16:39:48;;;;;;;0.35;0.35;;;24.40;91.90;28.70;101963.00;;;;5030198;28;20638;-65
2023/06/04 16:43:06;;;;;;;0.10;0.10;;;24.40;97.00;27.90;101980.00;;;;5029556;28;20190;-65
2023/06/04 16:46:02;;;;;;;1.00;0.82;;;24.40;99.10;27.50;101995.00;;;;5007834;28;20202;-65
2023/06/04 16:48:39;;;;;;;0.10;0.10;;;24.20;99.80;27.70;101984.00;;;;5028287;28;20191;-65
2023/06/04 16:51:38;;;;;;;0.32;0.32;;;24.00;99.90;27.70;101997.00;;;;4998221;28;20242;-65
2023/06/04 16:54:09;;;;;;;0.40;0.40;;;24.00;99.90;27.00;101968.00;;;;4954378;28;20212;-65
2023/06/04 16:56:40;;;;;;;1.35;0.43;;;23.80;99.90;26.70;102000.00;;;;4965055;28;20211;-65
2023/06/04 17:00:05;;;;;;;1.55;1.38;;;23.30;99.90;26.20;102018.00;;;;5012064;28;20183;-65
2023/06/04 17:03:22;;;;;;;;;;;;;;;;;;;;;
2023/06/04 17:06:03;;;;;;;3.13;1.38;;;23.10;99.90;25.70;102017.00;;;;5029890;28;20204;-65
2023/06/04 17:08:34;;;;;;;1.42;0.50;;;22.90;99.90;26.20;102011.00;;;;5023529;28;20240;-65
2023/06/04 17:11:12;;;;;;;0.75;0.30;;;22.80;99.90;26.10;102021.00;;;;5034014;28;20265;-65
2023/06/04 17:13:53;;;;;;;6.05;1.77;;;22.80;99.90;26.30;102025.00;;;;5033988;28;20186;-65
2023/06/04 17:16:47;;;;;;;1.75;0.52;;;22.90;99.90;25.90;102029.00;;;;5033792;28;20273;-65
2023/06/04 17:19:15;;;;;;;0.22;0.22;;;22.70;99.90;25.90;102019.00;;;;5029457;28;20548;-65
2023/06/04 17:21:51;;;;;;;0.68;0.55;;;22.60;99.90;25.80;102026.00;;;;5016377;28;20668;-65
2023/06/04 17:24:17;;;;;;;0.47;0.47;;;22.60;99.90;26.70;101979.00;;;;5032697;28;20661;-65
2023/06/04 17:26:46;;;;;;;0.30;0.30;;;22.60;99.90;26.00;102034.00;;;;5032910;28;20195;-65
2023/06/04 17:29:17;;;;;;;1.38;1.00;;;22.70;99.90;24.60;102029.00;;;;5032483;28;20183;-65
2023/06/04 17:32:16;;;;;;;1.20;0.60;;;22.20;99.90;25.10;102039.00;;;;5032292;28;20272;-65
2023/06/04 17:34:46;;;;;;;0.98;0.50;;;22.00;99.90;24.90;102033.00;;;;5011676;28;20211;-66
2023/06/04 17:37:35;;;;;;;0.28;0.28;;;21.90;99.90;25.50;101988.00;;;;5007460;28;20211;-65
2023/06/04 17:40:38;;;;;;;0.75;0.75;;;22.00;99.90;25.10;102032.00;;;;5032264;28;20179;-66
2023/06/04 17:43:43;;;;;;;0.32;0.32;;;22.00;99.90;24.80;102032.00;;;;4991564;28;20666;-65
2023/06/04 17:46:29;;;;;;;1.65;1.15;;;21.80;99.90;25.00;102048.00;;;;5006202;28;20246;-65
2023/06/04 17:50:32;;;;;;;0.73;0.73;;;21.70;99.90;24.90;102040.00;;;;5032157;28;20193;-68
2023/06/04 17:53:32;;;;;;;0.32;0.32;;;21.80;99.90;25.00;102029.00;;;;4955235;28;20303;-70
2023/06/04 17:56:30;;;;;;;1.38;0.70;;;21.80;99.90;25.30;102035.00;;;;4975264;28;20197;-67
2023/06/04 18:00:36;;;;;;;0.20;0.20;;;21.90;99.90;25.30;102038.00;;;;4942626;28;20209;-66
2023/06/04 18:03:25;;;;;;;0.38;0.38;;;21.60;99.90;24.80;102015.00;;;;4896320;29;20222;-66
2023/06/04 18:06:02;;;;;;;0.40;0.40;;;21.70;99.90;25.40;102035.00;;;;4914703;29;20278;-66
2023/06/04 18:09:00;;;;;;;0.75;0.65;;;21.60;99.90;24.00;102057.00;;;;4914594;29;20206;-66
2023/06/04 18:11:55;;;;;;;1.00;0.88;;;21.30;99.90;24.90;102039.00;;;;4914653;29;20199;-68
2023/06/04 18:14:21;;;;;;;1.00;1.00;;;21.30;99.90;25.10;102041.00;;;;4874257;29;20539;-70
2023/06/04 18:17:26;;;;;;;1.35;0.40;;;21.40;99.90;24.30;102041.00;;;;4932717;29;20197;-67
2023/06/04 18:19:58;;;;;;;1.13;0.80;;;21.30;99.90;24.20;102051.00;;;;4950322;28;20203;-66
2023/06/04 18:22:27;;;;;;;0.55;0.40;;;21.10;99.90;24.50;102045.00;;;;5034389;28;20579;-65
2023/06/04 18:25:47;;;;;;;0.20;0.20;;;21.00;99.90;24.80;102033.00;;;;5015380;28;20556;-66
2023/06/04 18:28:15;;;;;;;0.28;0.28;;;21.10;99.90;24.20;102048.00;;;;4994624;28;20286;-66
2023/06/04 18:30:47;;;;;;;0.52;0.52;;;21.00;99.90;24.40;102046.00;;;;5031418;28;20199;-65
2023/06/04 18:33:38;;;;;;;0.30;0.30;;;21.10;99.90;24.20;102048.00;;;;5034107;28;20213;-65
2023/06/04 18:36:36;;;;;;;0.10;0.10;;;20.90;99.90;24.20;102029.00;;;;5032238;28;20202;-74
2023/06/04 18:39:03;;;;;;;0.10;0.10;;;20.90;99.90;25.10;102029.00;;;;4997231;28;20301;-67
2023/06/04 18:42:10;;;;;;;0.10;0.10;;;21.10;99.90;25.40;102036.00;;;;5053135;28;20195;-66
2023/06/04 18:45:03;;;;;;;0.22;0.22;;;21.40;99.90;24.90;102049.00;;;;5031489;28;20183;-68
2023/06/04 18:48:06;;;;;;;0.80;0.80;;;21.20;99.90;24.00;102056.00;;;;5035942;28;20248;-66
2023/06/04 18:51:19;;;;;;;0.20;0.20;;;21.00;99.90;25.00;102042.00;;;;5032580;28;20212;-67
2023/06/04 18:53:53;;;;;;;0.10;0.10;;;21.10;99.90;24.30;102051.00;;;;5033566;28;20257;-67
2023/06/04 18:56:56;;;;;;;0.30;0.30;;;21.00;99.90;24.40;102058.00;;;;5019212;28;20552;-66
2023/06/04 19:00:14;;;;;;;0.40;0.40;;;20.80;99.90;24.70;102051.00;;;;5033341;28;20187;-66
2023/06/04 19:03:04;;;;;;;0.40;0.40;;;20.80;99.90;24.00;102053.00;;;;4994217;28;20208;-67
2023/06/04 19:05:45;;;;;;;0.30;0.30;;;20.70;99.90;24.80;102038.00;;;;5020850;28;20251;-67
2023/06/04 19:08:23;;;;;;;0.20;0.20;;;20.80;99.90;24.60;102037.00;;;;5019076;28;20236;-67
2023/06/04 19:11:04;;;;;;;1.30;1.20;;;20.70;99.90;23.50;102059.00;;;;5023760;28;20186;-66
2023/06/04 19:13:51;;;;;;;0.10;0.10;;;20.40;99.90;23.90;102000.00;;;;5057985;28;20618;-66
2023/06/04 19:16:38;;;;;;;0.10;0.10;;;20.40;99.90;23.70;102045.00;;;;5068106;28;20563;-66
2023/06/04 19:19:24;;;;;;;0.10;0.10;;;20.30;99.90;23.50;102042.00;;;;5037442;28;20267;-66
2023/06/04 19:21:51;;;;;;;0.10;0.10;;;20.10;99.90;23.60;102037.00;;;;5036192;28;20720;-67
2023/06/04 19:24:37;;;;;;;0.30;0.30;;;20.20;99.90;23.40;102042.00;;;;5034768;28;20183;-66
2023/06/04 19:27:33;;;;;;;0.52;0.50;;;20.20;99.90;23.10;102036.00;;;;5019269;28;20708;-66
2023/06/04 19:30:28;;;;;;;0.13;0.13;;;19.90;99.90;23.20;102037.00;;;;5000559;28;20248;-67
2023/06/04 19:33:01;;;;;;;1.17;1.17;;;19.80;99.90;23.00;102021.00;;;;5034091;28;20245;-66
2023/06/04 19:35:41;;;;;;;0.10;0.10;;;19.70;99.90;23.20;102019.00;;;;5034713;28;20233;-66
2023/06/04 19:38:19;;;;;;;0.45;0.45;;;19.80;99.90;23.00;102036.00;;;;5018073;28;20183;-66
2023/06/04 19:40:45;;;;;;;0.30;0.30;;;19.70;99.90;23.30;102016.00;;;;5032479;28;20183;-66
2023/06/04 19:43:17;;;;;;;0.50;0.50;;;19.70;99.90;23.40;102020.00;;;;5034113;28;20208;-66
2023/06/04 19:46:04;;;;;;;0.73;0.40;;;19.70;99.90;22.90;102041.00;;;;5034801;28;20540;-66
2023/06/04 19:48:39;;;;;;;0.47;0.47;;;19.70;99.90;22.90;102039.00;;;;5034525;28;20240;-66
2023/06/04 19:51:16;;;;;;;1.17;0.60;;;19.50;99.90;22.90;102034.00;;;;5034745;28;20201;-66
2023/06/04 19:53:48;;;;;;;0.10;0.10;;;19.50;99.90;23.20;102035.00;;;;5033798;28;20198;-67
2023/06/04 19:56:22;;;;;;;0.10;0.10;;;19.50;99.90;23.20;102044.00;;;;5034207;28;20589;-67